sensor_id;sensor_type;location;lat;lon;timestamp;pressure;altitude;pressure_sealevel;temperature;humidity
7264;BME280;3673;52.480;13.348;2023-01-29T00:01:54;102294.56;;;5.16;49.75
7264;BME280;3673;52.480;13.348;2023-01-29T00:04:21;102304.97;;;5.16;49.74
7264;BME280;3673;52.480;13.348;2023-01-29T00:06:49;102293.69;;;5.16;49.68
7264;BME280;3673;52.480;13.348;2023-01-29T00:09:16;102284.84;;;5.30;49.13
7264;BME280;3673;52.480;13.348;2023-01-29T00:11:43;102278.81;;;5.50;49.17
7264;BME280;3673;52.480;13.348;2023-01-29T00:14:11;102291.97;;;5.55;49.18
7264;BME280;3673;52.480;13.348;2023-01-29T00:16:39;102289.47;;;5.56;49.35
7264;BME280;3673;52.480;13.348;2023-01-29T00:19:06;102286.44;;;5.47;49.36
7264;BME280;3673;52.480;13.348;2023-01-29T00:21:33;102288.72;;;5.59;49.29
7264;BME280;3673;52.480;13.348;2023-01-29T00:24:00;102293.59;;;5.14;49.95
7264;BME280;3673;52.480;13.348;2023-01-29T00:26:27;102289.66;;;5.23;49.83
7264;BME280;3673;52.480;13.348;2023-01-29T00:28:54;102280.97;;;5.60;49.17
7264;BME280;3673;52.480;13.348;2023-01-29T00:31:25;102277.38;;;5.57;49.24
7264;BME280;3673;52.480;13.348;2023-01-29T00:33:53;102281.06;;;5.62;49.34
7264;BME280;3673;52.480;13.348;2023-01-29T00:36:21;102271.16;;;5.34;49.62
7264;BME280;3673;52.480;13.348;2023-01-29T00:38:54;102272.44;;;5.44;49.92
7264;BME280;3673;52.480;13.348;2023-01-29T00:41:26;102263.50;;;5.56;49.59
7264;BME280;3673;52.480;13.348;2023-01-29T00:44:11;102256.31;;;5.51;49.48
7264;BME280;3673;52.480;13.348;2023-01-29T00:46:56;102244.41;;;5.75;49.25
7264;BME280;3673;52.480;13.348;2023-01-29T00:49:24;102249.47;;;5.72;49.37
7264;BME280;3673;52.480;13.348;2023-01-29T00:51:51;102243.59;;;5.76;48.86
7264;BME280;3673;52.480;13.348;2023-01-29T00:54:32;102251.09;;;5.49;49.74
7264;BME280;3673;52.480;13.348;2023-01-29T00:56:59;102252.28;;;5.57;49.54
7264;BME280;3673;52.480;13.348;2023-01-29T00:59:26;102249.25;;;5.67;49.38
7264;BME280;3673;52.480;13.348;2023-01-29T01:01:53;102247.34;;;5.24;50.24
7264;BME280;3673;52.480;13.348;2023-01-29T01:04:39;102255.53;;;5.33;50.57
7264;BME280;3673;52.480;13.348;2023-01-29T01:07:06;102251.84;;;5.47;49.97
7264;BME280;3673;52.480;13.348;2023-01-29T01:09:34;102266.38;;;4.87;51.23
7264;BME280;3673;52.480;13.348;2023-01-29T01:12:19;102252.22;;;5.17;50.88
7264;BME280;3673;52.480;13.348;2023-01-29T01:14:46;102251.06;;;5.11;51.10
7264;BME280;3673;52.480;13.348;2023-01-29T01:17:13;102248.81;;;5.18;50.96
7264;BME280;3673;52.480;13.348;2023-01-29T01:19:42;102252.56;;;5.44;50.65
7264;BME280;3673;52.480;13.348;2023-01-29T01:22:09;102248.28;;;5.06;51.14
7264;BME280;3673;52.480;13.348;2023-01-29T01:24:36;102249.22;;;5.08;51.44
7264;BME280;3673;52.480;13.348;2023-01-29T01:27:03;102254.72;;;5.34;51.08
7264;BME280;3673;52.480;13.348;2023-01-29T01:29:30;102245.97;;;5.12;51.79
7264;BME280;3673;52.480;13.348;2023-01-29T01:31:57;102251.66;;;4.86;52.21
7264;BME280;3673;52.480;13.348;2023-01-29T01:34:24;102248.47;;;4.92;52.09
7264;BME280;3673;52.480;13.348;2023-01-29T01:36:54;102248.75;;;4.98;52.45
7264;BME280;3673;52.480;13.348;2023-01-29T01:39:21;102250.84;;;4.87;52.71
7264;BME280;3673;52.480;13.348;2023-01-29T01:41:48;102254.78;;;4.79;53.24
7264;BME280;3673;52.480;13.348;2023-01-29T01:44:52;102247.03;;;4.98;52.79
7264;BME280;3673;52.480;13.348;2023-01-29T01:47:23;102259.19;;;4.99;53.03
7264;BME280;3673;52.480;13.348;2023-01-29T01:49:52;102259.13;;;4.98;52.65
7264;BME280;3673;52.480;13.348;2023-01-29T01:52:22;102258.97;;;4.95;53.04
7264;BME280;3673;52.480;13.348;2023-01-29T01:54:50;102264.66;;;5.05;52.72
7264;BME280;3673;52.480;13.348;2023-01-29T01:57:20;102256.25;;;4.92;53.04
7264;BME280;3673;52.480;13.348;2023-01-29T01:59:55;102249.44;;;5.32;52.18
7264;BME280;3673;52.480;13.348;2023-01-29T02:02:24;102246.38;;;5.02;52.66
7264;BME280;3673;52.480;13.348;2023-01-29T02:05:11;102234.78;;;5.33;51.73
7264;BME280;3673;52.480;13.348;2023-01-29T02:07:57;102238.72;;;5.25;52.08
7264;BME280;3673;52.480;13.348;2023-01-29T02:10:46;102242.81;;;5.39;52.01
7264;BME280;3673;52.480;13.348;2023-01-29T02:13:14;102224.44;;;5.53;51.55
7264;BME280;3673;52.480;13.348;2023-01-29T02:15:43;102219.47;;;5.19;52.45
7264;BME280;3673;52.480;13.348;2023-01-29T02:18:14;102224.91;;;5.45;51.68
7264;BME280;3673;52.480;13.348;2023-01-29T02:20:50;102237.53;;;5.37;51.84
7264;BME280;3673;52.480;13.348;2023-01-29T02:24:10;102230.44;;;5.52;51.55
7264;BME280;3673;52.480;13.348;2023-01-29T02:26:55;102223.03;;;5.61;51.46
7264;BME280;3673;52.480;13.348;2023-01-29T02:29:33;102223.81;;;5.59;51.32
7264;BME280;3673;52.480;13.348;2023-01-29T02:32:16;102211.13;;;5.46;51.86
7264;BME280;3673;52.480;13.348;2023-01-29T02:34:53;102215.34;;;5.63;51.25
7264;BME280;3673;52.480;13.348;2023-01-29T02:37:49;102223.16;;;5.64;51.43
7264;BME280;3673;52.480;13.348;2023-01-29T02:40:28;102224.97;;;5.65;51.33
7264;BME280;3673;52.480;13.348;2023-01-29T02:43:06;102228.50;;;5.87;50.96
7264;BME280;3673;52.480;13.348;2023-01-29T02:45:43;102221.25;;;5.80;50.98
7264;BME280;3673;52.480;13.348;2023-01-29T02:48:18;102226.06;;;5.51;51.75
7264;BME280;3673;52.480;13.348;2023-01-29T02:50:52;102224.03;;;5.44;52.25
7264;BME280;3673;52.480;13.348;2023-01-29T02:53:25;102214.13;;;5.76;51.45
7264;BME280;3673;52.480;13.348;2023-01-29T02:55:58;102207.72;;;5.87;51.41
7264;BME280;3673;52.480;13.348;2023-01-29T02:58:31;102214.47;;;6.04;50.96
7264;BME280;3673;52.480;13.348;2023-01-29T03:01:06;102214.19;;;5.77;51.12
7264;BME280;3673;52.480;13.348;2023-01-29T03:03:40;102202.38;;;5.84;51.39
7264;BME280;3673;52.480;13.348;2023-01-29T03:06:13;102196.88;;;5.36;52.24
7264;BME280;3673;52.480;13.348;2023-01-29T03:08:51;102192.25;;;5.10;52.63
7264;BME280;3673;52.480;13.348;2023-01-29T03:11:20;102210.44;;;5.50;52.12
7264;BME280;3673;52.480;13.348;2023-01-29T03:13:51;102195.03;;;5.34;52.57
7264;BME280;3673;52.480;13.348;2023-01-29T03:16:25;102204.28;;;5.48;52.36
7264;BME280;3673;52.480;13.348;2023-01-29T03:19:01;102201.56;;;5.45;52.68
7264;BME280;3673;52.480;13.348;2023-01-29T03:21:31;102204.22;;;5.46;52.32
7264;BME280;3673;52.480;13.348;2023-01-29T03:24:33;102199.69;;;5.61;52.33
7264;BME280;3673;52.480;13.348;2023-01-29T03:27:25;102202.28;;;5.82;51.77
7264;BME280;3673;52.480;13.348;2023-01-29T03:30:14;102198.28;;;5.49;52.52
7264;BME280;3673;52.480;13.348;2023-01-29T03:33:05;102186.78;;;5.44;52.52
7264;BME280;3673;52.480;13.348;2023-01-29T03:35:37;102196.47;;;5.67;52.45
7264;BME280;3673;52.480;13.348;2023-01-29T03:38:07;102180.75;;;5.43;52.55
7264;BME280;3673;52.480;13.348;2023-01-29T03:40:42;102177.28;;;5.04;54.03
7264;BME280;3673;52.480;13.348;2023-01-29T03:43:17;102179.06;;;4.86;54.12
7264;BME280;3673;52.480;13.348;2023-01-29T03:45:59;102167.44;;;4.97;54.29
7264;BME280;3673;52.480;13.348;2023-01-29T03:48:34;102163.00;;;5.54;53.10
7264;BME280;3673;52.480;13.348;2023-01-29T03:51:18;102164.91;;;5.58;52.85
7264;BME280;3673;52.480;13.348;2023-01-29T03:53:53;102163.16;;;5.57;52.85
7264;BME280;3673;52.480;13.348;2023-01-29T03:56:36;102154.25;;;5.50;53.30
7264;BME280;3673;52.480;13.348;2023-01-29T03:59:17;102137.06;;;5.33;53.32
7264;BME280;3673;52.480;13.348;2023-01-29T04:01:50;102134.28;;;5.09;54.31
7264;BME280;3673;52.480;13.348;2023-01-29T04:04:23;102133.84;;;5.59;53.08
7264;BME280;3673;52.480;13.348;2023-01-29T04:06:54;102132.03;;;5.38;53.30
7264;BME280;3673;52.480;13.348;2023-01-29T04:09:27;102123.13;;;5.52;53.06
7264;BME280;3673;52.480;13.348;2023-01-29T04:12:01;102108.06;;;5.64;52.91
7264;BME280;3673;52.480;13.348;2023-01-29T04:14:30;102097.88;;;5.48;53.17
7264;BME280;3673;52.480;13.348;2023-01-29T04:17:05;102101.63;;;5.34;54.01
7264;BME280;3673;52.480;13.348;2023-01-29T04:19:35;102099.06;;;5.14;54.29
7264;BME280;3673;52.480;13.348;2023-01-29T04:22:10;102102.34;;;5.31;54.36
7264;BME280;3673;52.480;13.348;2023-01-29T04:24:40;102093.31;;;5.42;54.32
7264;BME280;3673;52.480;13.348;2023-01-29T04:27:21;102097.38;;;5.36;54.40
7264;BME280;3673;52.480;13.348;2023-01-29T04:30:05;102100.84;;;5.36;54.55
7264;BME280;3673;52.480;13.348;2023-01-29T04:32:49;102090.84;;;5.25;55.48
7264;BME280;3673;52.480;13.348;2023-01-29T04:35:29;102076.53;;;5.55;54.92
7264;BME280;3673;52.480;13.348;2023-01-29T04:38:07;102079.63;;;5.05;56.50
7264;BME280;3673;52.480;13.348;2023-01-29T04:40:49;102073.38;;;5.20;56.50
7264;BME280;3673;52.480;13.348;2023-01-29T04:43:23;102075.91;;;5.19;56.18
7264;BME280;3673;52.480;13.348;2023-01-29T04:46:08;102081.31;;;5.04;56.56
7264;BME280;3673;52.480;13.348;2023-01-29T04:48:55;102087.66;;;5.11;56.89
7264;BME280;3673;52.480;13.348;2023-01-29T04:51:34;102086.66;;;5.28;56.44
7264;BME280;3673;52.480;13.348;2023-01-29T04:54:12;102087.56;;;5.49;56.09
7264;BME280;3673;52.480;13.348;2023-01-29T04:56:50;102081.19;;;5.01;57.18
7264;BME280;3673;52.480;13.348;2023-01-29T04:59:23;102096.44;;;5.34;56.75
7264;BME280;3673;52.480;13.348;2023-01-29T05:01:53;102085.28;;;5.57;56.44
7264;BME280;3673;52.480;13.348;2023-01-29T05:04:20;102085.53;;;5.42;57.28
7264;BME280;3673;52.480;13.348;2023-01-29T05:06:50;102088.06;;;5.20;58.15
7264;BME280;3673;52.480;13.348;2023-01-29T05:09:18;102087.81;;;5.35;58.51
7264;BME280;3673;52.480;13.348;2023-01-29T05:11:47;102097.56;;;5.19;58.75
7264;BME280;3673;52.480;13.348;2023-01-29T05:14:17;102093.00;;;5.35;58.88
7264;BME280;3673;52.480;13.348;2023-01-29T05:16:51;102089.91;;;5.43;58.69
7264;BME280;3673;52.480;13.348;2023-01-29T05:19:24;102096.84;;;5.44;58.39
7264;BME280;3673;52.480;13.348;2023-01-29T05:21:52;102086.84;;;5.12;59.24
7264;BME280;3673;52.480;13.348;2023-01-29T05:24:22;102098.00;;;5.51;58.93
7264;BME280;3673;52.480;13.348;2023-01-29T05:26:51;102094.91;;;5.59;58.48
7264;BME280;3673;52.480;13.348;2023-01-29T05:29:36;102090.84;;;5.45;58.85
7264;BME280;3673;52.480;13.348;2023-01-29T05:32:03;102094.78;;;5.36;59.25
7264;BME280;3673;52.480;13.348;2023-01-29T05:34:30;102099.41;;;5.43;59.83
7264;BME280;3673;52.480;13.348;2023-01-29T05:36:58;102098.84;;;5.50;59.51
7264;BME280;3673;52.480;13.348;2023-01-29T05:39:25;102098.88;;;5.31;60.12
7264;BME280;3673;52.480;13.348;2023-01-29T05:41:52;102096.28;;;5.31;60.27
7264;BME280;3673;52.480;13.348;2023-01-29T05:44:19;102100.66;;;5.32;60.22
7264;BME280;3673;52.480;13.348;2023-01-29T05:46:46;102100.91;;;5.17;60.54
7264;BME280;3673;52.480;13.348;2023-01-29T05:49:12;102113.59;;;5.11;60.85
7264;BME280;3673;52.480;13.348;2023-01-29T05:51:39;102106.47;;;5.26;60.87
7264;BME280;3673;52.480;13.348;2023-01-29T05:54:09;102112.19;;;5.59;60.13
7264;BME280;3673;52.480;13.348;2023-01-29T05:56:36;102107.97;;;5.21;60.95
7264;BME280;3673;52.480;13.348;2023-01-29T05:59:03;102113.69;;;5.54;60.48
7264;BME280;3673;52.480;13.348;2023-01-29T06:01:31;102114.00;;;5.41;60.35
7264;BME280;3673;52.480;13.348;2023-01-29T06:03:57;102114.31;;;5.28;60.61
7264;BME280;3673;52.480;13.348;2023-01-29T06:06:24;102109.13;;;5.07;61.75
7264;BME280;3673;52.480;13.348;2023-01-29T06:08:51;102110.00;;;5.28;61.36
7264;BME280;3673;52.480;13.348;2023-01-29T06:11:19;102116.41;;;5.15;61.05
7264;BME280;3673;52.480;13.348;2023-01-29T06:13:46;102124.16;;;5.55;60.65
7264;BME280;3673;52.480;13.348;2023-01-29T06:16:13;102121.44;;;5.73;60.21
7264;BME280;3673;52.480;13.348;2023-01-29T06:18:41;102132.72;;;5.53;60.47
7264;BME280;3673;52.480;13.348;2023-01-29T06:21:11;102131.63;;;5.68;60.26
7264;BME280;3673;52.480;13.348;2023-01-29T06:23:38;102129.72;;;5.85;60.19
7264;BME280;3673;52.480;13.348;2023-01-29T06:26:08;102119.66;;;5.72;59.73
7264;BME280;3673;52.480;13.348;2023-01-29T06:28:37;102125.69;;;5.92;59.43
7264;BME280;3673;52.480;13.348;2023-01-29T06:31:06;102115.94;;;5.86;59.23
7264;BME280;3673;52.480;13.348;2023-01-29T06:33:33;102119.78;;;5.96;59.28
7264;BME280;3673;52.480;13.348;2023-01-29T06:36:02;102116.53;;;5.81;59.44
7264;BME280;3673;52.480;13.348;2023-01-29T06:38:30;102114.97;;;5.63;60.01
7264;BME280;3673;52.480;13.348;2023-01-29T06:40:57;102115.69;;;5.59;60.30
7264;BME280;3673;52.480;13.348;2023-01-29T06:43:24;102111.69;;;5.88;59.56
7264;BME280;3673;52.480;13.348;2023-01-29T06:45:55;102116.25;;;5.52;60.62
7264;BME280;3673;52.480;13.348;2023-01-29T06:48:23;102121.22;;;5.48;60.47
7264;BME280;3673;52.480;13.348;2023-01-29T06:50:51;102124.38;;;5.41;60.35
7264;BME280;3673;52.480;13.348;2023-01-29T06:53:19;102134.78;;;5.41;60.20
7264;BME280;3673;52.480;13.348;2023-01-29T06:55:51;102140.75;;;5.59;59.99
7264;BME280;3673;52.480;13.348;2023-01-29T06:58:20;102134.00;;;5.85;59.62
7264;BME280;3673;52.480;13.348;2023-01-29T07:00:47;102127.00;;;5.61;59.78
7264;BME280;3673;52.480;13.348;2023-01-29T07:03:15;102114.59;;;5.54;60.30
7264;BME280;3673;52.480;13.348;2023-01-29T07:05:42;102135.03;;;5.67;60.03
7264;BME280;3673;52.480;13.348;2023-01-29T07:08:09;102117.50;;;5.83;59.20
7264;BME280;3673;52.480;13.348;2023-01-29T07:10:35;102113.50;;;5.91;59.21
7264;BME280;3673;52.480;13.348;2023-01-29T07:13:02;102111.63;;;5.87;59.42
7264;BME280;3673;52.480;13.348;2023-01-29T07:15:29;102120.41;;;5.69;59.76
7264;BME280;3673;52.480;13.348;2023-01-29T07:17:58;102110.41;;;5.79;59.28
7264;BME280;3673;52.480;13.348;2023-01-29T07:20:28;102097.88;;;5.68;60.53
7264;BME280;3673;52.480;13.348;2023-01-29T07:22:56;102107.03;;;5.60;60.90
7264;BME280;3673;52.480;13.348;2023-01-29T07:25:24;102108.63;;;5.78;60.60
7264;BME280;3673;52.480;13.348;2023-01-29T07:27:51;102105.97;;;5.55;61.36
7264;BME280;3673;52.480;13.348;2023-01-29T07:30:18;102108.66;;;5.57;60.89
7264;BME280;3673;52.480;13.348;2023-01-29T07:32:46;102123.19;;;5.74;60.74
7264;BME280;3673;52.480;13.348;2023-01-29T07:35:13;102120.44;;;5.90;60.76
7264;BME280;3673;52.480;13.348;2023-01-29T07:37:41;102121.63;;;5.57;61.47
7264;BME280;3673;52.480;13.348;2023-01-29T07:40:09;102115.50;;;5.77;60.95
7264;BME280;3673;52.480;13.348;2023-01-29T07:42:37;102115.03;;;5.65;61.17
7264;BME280;3673;52.480;13.348;2023-01-29T07:45:08;102108.94;;;5.64;61.48
7264;BME280;3673;52.480;13.348;2023-01-29T07:47:35;102110.34;;;5.98;60.67
7264;BME280;3673;52.480;13.348;2023-01-29T07:50:03;102096.97;;;5.68;60.88
7264;BME280;3673;52.480;13.348;2023-01-29T07:52:32;102083.72;;;5.83;60.92
7264;BME280;3673;52.480;13.348;2023-01-29T07:55:00;102080.88;;;5.97;61.00
7264;BME280;3673;52.480;13.348;2023-01-29T07:57:27;102063.00;;;6.05;60.53
7264;BME280;3673;52.480;13.348;2023-01-29T07:59:55;102071.78;;;5.65;61.43
7264;BME280;3673;52.480;13.348;2023-01-29T08:02:21;102076.56;;;5.77;61.06
7264;BME280;3673;52.480;13.348;2023-01-29T08:04:48;102088.31;;;5.88;62.00
7264;BME280;3673;52.480;13.348;2023-01-29T08:07:15;102089.13;;;5.25;63.31
7264;BME280;3673;52.480;13.348;2023-01-29T08:09:42;102083.63;;;5.59;63.54
7264;BME280;3673;52.480;13.348;2023-01-29T08:12:10;102072.25;;;5.78;63.12
7264;BME280;3673;52.480;13.348;2023-01-29T08:14:37;102074.13;;;5.80;62.53
7264;BME280;3673;52.480;13.348;2023-01-29T08:17:03;102067.41;;;6.07;62.01
7264;BME280;3673;52.480;13.348;2023-01-29T08:19:30;102065.94;;;5.92;62.29
7264;BME280;3673;52.480;13.348;2023-01-29T08:21:57;102070.69;;;5.81;62.77
7264;BME280;3673;52.480;13.348;2023-01-29T08:24:24;102074.13;;;5.80;62.67
7264;BME280;3673;52.480;13.348;2023-01-29T08:26:50;102068.53;;;5.92;62.85
7264;BME280;3673;52.480;13.348;2023-01-29T08:29:18;102073.28;;;5.81;63.03
7264;BME280;3673;52.480;13.348;2023-01-29T08:31:45;102075.94;;;5.83;62.96
7264;BME280;3673;52.480;13.348;2023-01-29T08:34:12;102085.06;;;5.94;63.08
7264;BME280;3673;52.480;13.348;2023-01-29T08:36:39;102065.28;;;5.97;62.81
7264;BME280;3673;52.480;13.348;2023-01-29T08:39:06;102066.88;;;5.94;62.75
7264;BME280;3673;52.480;13.348;2023-01-29T08:41:32;102073.03;;;5.96;62.77
7264;BME280;3673;52.480;13.348;2023-01-29T08:43:59;102079.81;;;5.71;62.82
7264;BME280;3673;52.480;13.348;2023-01-29T08:46:30;102073.56;;;5.66;63.16
7264;BME280;3673;52.480;13.348;2023-01-29T08:48:57;102072.22;;;5.76;63.50
7264;BME280;3673;52.480;13.348;2023-01-29T08:51:24;102072.72;;;5.88;63.04
7264;BME280;3673;52.480;13.348;2023-01-29T08:53:52;102073.84;;;5.74;63.68
7264;BME280;3673;52.480;13.348;2023-01-29T08:56:18;102073.63;;;5.68;63.53
7264;BME280;3673;52.480;13.348;2023-01-29T08:58:45;102068.06;;;5.59;64.05
7264;BME280;3673;52.480;13.348;2023-01-29T09:01:13;102070.91;;;5.44;63.95
7264;BME280;3673;52.480;13.348;2023-01-29T09:03:41;102064.94;;;5.67;63.71
7264;BME280;3673;52.480;13.348;2023-01-29T09:06:10;102067.34;;;5.84;63.24
7264;BME280;3673;52.480;13.348;2023-01-29T09:08:38;102057.41;;;6.16;62.16
7264;BME280;3673;52.480;13.348;2023-01-29T09:11:05;102059.22;;;6.19;61.45
7264;BME280;3673;52.480;13.348;2023-01-29T09:13:33;102054.94;;;6.21;61.65
7264;BME280;3673;52.480;13.348;2023-01-29T09:16:00;102054.91;;;6.19;61.66
7264;BME280;3673;52.480;13.348;2023-01-29T09:18:29;102064.22;;;6.37;61.03
7264;BME280;3673;52.480;13.348;2023-01-29T09:20:57;102048.84;;;6.43;61.00
7264;BME280;3673;52.480;13.348;2023-01-29T09:23:24;102050.88;;;6.51;60.43
7264;BME280;3673;52.480;13.348;2023-01-29T09:25:51;102063.34;;;6.14;61.36
7264;BME280;3673;52.480;13.348;2023-01-29T09:28:18;102054.16;;;5.79;62.04
7264;BME280;3673;52.480;13.348;2023-01-29T09:30:44;102055.28;;;6.06;61.92
7264;BME280;3673;52.480;13.348;2023-01-29T09:33:11;102052.34;;;6.43;60.91
7264;BME280;3673;52.480;13.348;2023-01-29T09:35:40;102057.41;;;6.16;61.06
7264;BME280;3673;52.480;13.348;2023-01-29T09:38:09;102046.16;;;6.17;61.12
7264;BME280;3673;52.480;13.348;2023-01-29T09:40:45;102047.97;;;5.76;61.82
7264;BME280;3673;52.480;13.348;2023-01-29T09:43:18;102040.09;;;5.95;61.69
7264;BME280;3673;52.480;13.348;2023-01-29T09:45:53;102034.19;;;6.45;60.31
7264;BME280;3673;52.480;13.348;2023-01-29T09:48:26;102037.06;;;6.52;60.02
7264;BME280;3673;52.480;13.348;2023-01-29T09:50:59;102022.91;;;6.44;60.17
7264;BME280;3673;52.480;13.348;2023-01-29T09:53:37;102015.94;;;6.43;60.16
7264;BME280;3673;52.480;13.348;2023-01-29T09:56:12;102026.69;;;6.06;60.77
7264;BME280;3673;52.480;13.348;2023-01-29T09:58:42;102008.28;;;6.24;61.14
7264;BME280;3673;52.480;13.348;2023-01-29T10:01:16;102004.47;;;6.62;59.77
7264;BME280;3673;52.480;13.348;2023-01-29T10:04:13;101993.38;;;6.66;59.91
7264;BME280;3673;52.480;13.348;2023-01-29T10:07:01;101998.06;;;6.76;59.49
7264;BME280;3673;52.480;13.348;2023-01-29T10:12:56;101999.06;;;6.81;58.91
7264;BME280;3673;52.480;13.348;2023-01-29T10:15:44;101990.09;;;6.97;58.58
7264;BME280;3673;52.480;13.348;2023-01-29T10:18:48;101974.44;;;6.70;59.21
7264;BME280;3673;52.480;13.348;2023-01-29T10:21:55;101977.34;;;6.79;58.81
7264;BME280;3673;52.480;13.348;2023-01-29T10:24:35;101972.13;;;7.31;57.81
7264;BME280;3673;52.480;13.348;2023-01-29T10:27:12;101985.75;;;7.22;57.71
7264;BME280;3673;52.480;13.348;2023-01-29T10:29:41;101985.47;;;7.40;57.20
7264;BME280;3673;52.480;13.348;2023-01-29T10:32:15;101995.31;;;6.97;58.16
7264;BME280;3673;52.480;13.348;2023-01-29T10:34:47;102005.84;;;7.01;57.36
7264;BME280;3673;52.480;13.348;2023-01-29T10:37:17;101993.59;;;7.24;57.23
7264;BME280;3673;52.480;13.348;2023-01-29T10:39:47;101995.56;;;7.31;57.16
7264;BME280;3673;52.480;13.348;2023-01-29T10:42:29;101975.47;;;7.82;55.91
7264;BME280;3673;52.480;13.348;2023-01-29T10:45:08;101980.56;;;7.51;56.23
7264;BME280;3673;52.480;13.348;2023-01-29T10:48:05;101970.94;;;7.20;56.91
7264;BME280;3673;52.480;13.348;2023-01-29T10:50:46;101964.84;;;8.04;55.21
7264;BME280;3673;52.480;13.348;2023-01-29T10:53:26;101964.75;;;8.01;54.80
7264;BME280;3673;52.480;13.348;2023-01-29T10:58:54;101949.34;;;7.81;55.55
7264;BME280;3673;52.480;13.348;2023-01-29T11:01:23;101956.63;;;7.62;56.18
7264;BME280;3673;52.480;13.348;2023-01-29T11:03:56;101943.47;;;8.16;54.56
7264;BME280;3673;52.480;13.348;2023-01-29T11:06:29;101935.41;;;8.07;54.61
7264;BME280;3673;52.480;13.348;2023-01-29T11:09:03;101932.66;;;8.02;55.05
7264;BME280;3673;52.480;13.348;2023-01-29T11:11:40;101943.00;;;8.01;54.86
7264;BME280;3673;52.480;13.348;2023-01-29T11:14:12;101934.41;;;7.73;54.63
7264;BME280;3673;52.480;13.348;2023-01-29T11:16:41;101915.13;;;7.39;55.53
7264;BME280;3673;52.480;13.348;2023-01-29T11:19:09;101911.81;;;7.44;55.55
7264;BME280;3673;52.480;13.348;2023-01-29T11:21:51;101914.69;;;7.25;55.79
7264;BME280;3673;52.480;13.348;2023-01-29T11:24:18;101909.72;;;7.91;54.82
7264;BME280;3673;52.480;13.348;2023-01-29T11:26:49;101903.56;;;8.18;53.71
7264;BME280;3673;52.480;13.348;2023-01-29T11:29:37;101914.31;;;7.69;54.07
7264;BME280;3673;52.480;13.348;2023-01-29T11:32:07;101904.66;;;7.65;54.35
7264;BME280;3673;52.480;13.348;2023-01-29T11:34:59;101904.28;;;8.13;53.23
7264;BME280;3673;52.480;13.348;2023-01-29T11:37:35;101903.06;;;8.00;53.47
7264;BME280;3673;52.480;13.348;2023-01-29T11:40:32;101884.97;;;8.38;52.78
7264;BME280;3673;52.480;13.348;2023-01-29T11:43:22;101886.84;;;8.76;52.11
7264;BME280;3673;52.480;13.348;2023-01-29T11:45:56;101886.13;;;8.17;52.55
7264;BME280;3673;52.480;13.348;2023-01-29T11:48:38;101888.53;;;8.40;51.94
7264;BME280;3673;52.480;13.348;2023-01-29T11:51:11;101874.63;;;7.78;53.70
7264;BME280;3673;52.480;13.348;2023-01-29T11:53:49;101872.31;;;7.87;53.79
7264;BME280;3673;52.480;13.348;2023-01-29T11:56:22;101877.69;;;7.93;52.95
7264;BME280;3673;52.480;13.348;2023-01-29T11:58:54;101871.78;;;8.30;52.72
7264;BME280;3673;52.480;13.348;2023-01-29T12:01:30;101858.00;;;8.36;52.35
7264;BME280;3673;52.480;13.348;2023-01-29T12:03:59;101864.47;;;8.51;52.19
7264;BME280;3673;52.480;13.348;2023-01-29T12:06:33;101855.06;;;8.25;52.39
7264;BME280;3673;52.480;13.348;2023-01-29T12:09:07;101848.13;;;7.93;53.04
7264;BME280;3673;52.480;13.348;2023-01-29T12:11:35;101852.91;;;8.09;53.24
7264;BME280;3673;52.480;13.348;2023-01-29T12:14:27;101847.63;;;8.06;52.90
7264;BME280;3673;52.480;13.348;2023-01-29T12:17:01;101831.47;;;8.52;51.70
7264;BME280;3673;52.480;13.348;2023-01-29T12:19:35;101828.03;;;8.54;52.38
7264;BME280;3673;52.480;13.348;2023-01-29T12:22:07;101837.88;;;8.30;52.28
7264;BME280;3673;52.480;13.348;2023-01-29T12:24:44;101838.91;;;8.37;52.32
7264;BME280;3673;52.480;13.348;2023-01-29T12:27:21;101835.91;;;8.23;52.43
7264;BME280;3673;52.480;13.348;2023-01-29T12:29:58;101826.03;;;8.43;52.29
7264;BME280;3673;52.480;13.348;2023-01-29T12:32:34;101817.88;;;7.66;53.41
7264;BME280;3673;52.480;13.348;2023-01-29T12:35:08;101829.44;;;8.09;53.06
7264;BME280;3673;52.480;13.348;2023-01-29T12:37:44;101825.97;;;8.40;52.30
7264;BME280;3673;52.480;13.348;2023-01-29T12:40:16;101810.25;;;7.44;53.95
7264;BME280;3673;52.480;13.348;2023-01-29T12:42:46;101806.00;;;7.46;54.70
7264;BME280;3673;52.480;13.348;2023-01-29T12:45:19;101799.50;;;7.62;53.92
7264;BME280;3673;52.480;13.348;2023-01-29T12:47:48;101801.78;;;7.21;54.91
7264;BME280;3673;52.480;13.348;2023-01-29T12:50:21;101804.00;;;7.99;53.79
7264;BME280;3673;52.480;13.348;2023-01-29T12:52:53;101801.09;;;7.88;53.51
7264;BME280;3673;52.480;13.348;2023-01-29T12:55:25;101807.47;;;7.99;53.41
7264;BME280;3673;52.480;13.348;2023-01-29T12:57:56;101798.84;;;8.00;53.25
7264;BME280;3673;52.480;13.348;2023-01-29T13:00:30;101802.22;;;7.98;53.50
7264;BME280;3673;52.480;13.348;2023-01-29T13:03:02;101803.75;;;8.22;52.75
7264;BME280;3673;52.480;13.348;2023-01-29T13:05:35;101801.88;;;8.50;52.24
7264;BME280;3673;52.480;13.348;2023-01-29T13:08:07;101790.06;;;7.98;53.32
7264;BME280;3673;52.480;13.348;2023-01-29T13:10:41;101792.88;;;8.39;52.25
7264;BME280;3673;52.480;13.348;2023-01-29T13:13:14;101786.25;;;8.17;52.63
7264;BME280;3673;52.480;13.348;2023-01-29T13:15:48;101777.69;;;8.24;53.14
7264;BME280;3673;52.480;13.348;2023-01-29T13:18:34;101781.78;;;8.13;52.86
7264;BME280;3673;52.480;13.348;2023-01-29T13:21:03;101771.84;;;8.67;51.78
7264;BME280;3673;52.480;13.348;2023-01-29T13:23:35;101770.44;;;8.44;52.57
7264;BME280;3673;52.480;13.348;2023-01-29T13:26:04;101764.91;;;8.32;52.61
7264;BME280;3673;52.480;13.348;2023-01-29T13:28:31;101776.44;;;8.08;52.91
7264;BME280;3673;52.480;13.348;2023-01-29T13:31:26;101772.88;;;8.05;53.23
7264;BME280;3673;52.480;13.348;2023-01-29T13:34:01;101777.44;;;7.81;53.79
7264;BME280;3673;52.480;13.348;2023-01-29T13:36:30;101777.72;;;7.91;53.42
7264;BME280;3673;52.480;13.348;2023-01-29T13:39:03;101766.69;;;8.01;53.84
7264;BME280;3673;52.480;13.348;2023-01-29T13:41:36;101762.06;;;7.90;53.62
7264;BME280;3673;52.480;13.348;2023-01-29T13:44:07;101766.97;;;8.12;53.34
7264;BME280;3673;52.480;13.348;2023-01-29T13:46:39;101762.69;;;8.14;53.28